Time;durP1;ratioP1;P1;durP2;ratioP2;P2;SDS_P1;SDS_P2;PMS_P1;PMS_P2;Temp;Humidity;BMP_temperature;BMP_pressure;BME280_temperature;BME280_humidity;BME280_pressure;Samples;Min_cycle;Max_cycle;Signal;HPM_P1;HPM_P2
2023/06/14 00:00:57;;;;;;;;;11.25;11.25;;;;;;;;5097048;27;45228;-68
2023/06/14 00:03:24;;;;;;;;;11.33;10.67;;;;;;;;5093773;27;45627;-68
2023/06/14 00:05:49;;;;;;;;;14.25;13.50;;;;;;;;5095716;27;46117;-68
2023/06/14 00:08:15;;;;;;;;;12.00;10.00;;;;;;;;5090203;27;45262;-68
2023/06/14 00:10:41;;;;;;;;;13.75;13.75;;;;;;;;5101743;27;45175;-68
2023/06/14 00:13:07;;;;;;;;;13.50;12.00;;;;;;;;5092052;27;46600;-68
2023/06/14 00:15:32;;;;;;;;;12.50;12.00;;;;;;;;5096717;27;45522;-68
2023/06/14 00:18:01;;;;;;;;;15.00;13.00;;;;;;;;5087255;27;45257;-68
2023/06/14 00:20:26;;;;;;;;;13.00;13.00;;;;;;;;5079730;27;45300;-68
2023/06/14 00:22:52;;;;;;;;;14.00;12.25;;;;;;;;5079747;27;46471;-68
2023/06/14 00:25:17;;;;;;;;;13.67;11.33;;;;;;;;5085250;27;45426;-68
2023/06/14 00:27:42;;;;;;;;;14.67;13.33;;;;;;;;5100269;27;45790;-68
2023/06/14 00:30:08;;;;;;;;;14.00;13.00;;;;;;;;5081595;27;45263;-68
2023/06/14 00:32:33;;;;;;;;;12.50;12.25;;;;;;;;5080394;27;46639;-68
2023/06/14 00:34:58;;;;;;;;;16.00;15.00;;;;;;;;5081030;27;46487;-68
2023/06/14 00:37:23;;;;;;;;;12.33;11.00;;;;;;;;5081784;27;45400;-68
2023/06/14 00:39:48;;;;;;;;;12.67;11.67;;;;;;;;5079294;27;45369;-68
2023/06/14 00:42:24;;;;;;;;;14.67;13.33;;;;;;;;5080906;27;45202;-68
2023/06/14 00:44:49;;;;;;;;;13.75;12.50;;;;;;;;5080633;27;46309;-68
2023/06/14 00:47:14;;;;;;;;;14.33;12.00;;;;;;;;5080552;27;45170;-68
2023/06/14 00:49:40;;;;;;;;;10.50;10.00;;;;;;;;5091102;27;45735;-68
2023/06/14 00:52:06;;;;;;;;;16.25;15.75;;;;;;;;5088963;27;47322;-68
2023/06/14 00:54:31;;;;;;;;;15.00;14.00;;;;;;;;5088226;27;46779;-68
2023/06/14 00:56:56;;;;;;;;;14.33;13.67;;;;;;;;5101065;27;45209;-68
2023/06/14 00:59:21;;;;;;;;;11.67;10.00;;;;;;;;5090189;27;45302;-68
2023/06/14 01:01:48;;;;;;;;;12.00;10.00;;;;;;;;5081984;27;47070;-68
2023/06/14 01:04:13;;;;;;;;;12.50;11.50;;;;;;;;5093468;27;45470;-68
2023/06/14 01:06:47;;;;;;;;;12.75;11.00;;;;;;;;5091565;27;45394;-68
2023/06/14 01:09:13;;;;;;;;;14.25;13.00;;;;;;;;5080297;27;45173;-68
2023/06/14 01:11:43;;;;;;;;;14.67;12.33;;;;;;;;5080419;27;45247;-67
2023/06/14 01:14:10;;;;;;;;;13.25;12.50;;;;;;;;5091398;27;48291;-68
2023/06/14 01:16:36;;;;;;;;;11.50;11.00;;;;;;;;5092595;27;45175;-68
2023/06/14 01:19:02;;;;;;;;;15.00;11.75;;;;;;;;5100589;27;45238;-68
2023/06/14 01:21:28;;;;;;;;;13.00;11.75;;;;;;;;5086918;27;46858;-67
2023/06/14 01:23:54;;;;;;;;;15.75;14.75;;;;;;;;5081627;27;47106;-67
2023/06/14 01:26:20;;;;;;;;;13.25;13.25;;;;;;;;5090490;27;45570;-68
2023/06/14 01:28:48;;;;;;;;;14.75;14.25;;;;;;;;5093694;27;45308;-68
2023/06/14 01:31:14;;;;;;;;;15.00;14.25;;;;;;;;5078863;28;46311;-68
2023/06/14 01:33:40;;;;;;;;;14.25;13.50;;;;;;;;5079941;27;46482;-67
2023/06/14 01:36:07;;;;;;;;;14.25;13.00;;;;;;;;5097964;27;45437;-68
2023/06/14 01:38:32;;;;;;;;;17.25;15.50;;;;;;;;5088533;27;45296;-68
2023/06/14 01:40:58;;;;;;;;;15.00;13.50;;;;;;;;5077776;27;46678;-68
2023/06/14 01:43:23;;;;;;;;;17.25;14.75;;;;;;;;5090836;27;46963;-67
2023/06/14 01:45:50;;;;;;;;;15.00;13.75;;;;;;;;5099040;27;45398;-68
2023/06/14 01:48:15;;;;;;;;;16.00;15.00;;;;;;;;5088619;27;45495;-68
2023/06/14 01:50:40;;;;;;;;;14.25;14.25;;;;;;;;5093917;27;46087;-68
2023/06/14 01:53:09;;;;;;;;;15.25;13.50;;;;;;;;5087020;27;45279;-67
2023/06/14 01:55:37;;;;;;;;;17.00;16.00;;;;;;;;5091869;27;45239;-67
2023/06/14 01:58:02;;;;;;;;;12.25;11.75;;;;;;;;5092504;27;45318;-68
2023/06/14 02:00:27;;;;;;;;;16.25;15.50;;;;;;;;5097525;27;46107;-68
2023/06/14 02:02:52;;;;;;;;;16.67;15.33;;;;;;;;5084540;27;48157;-68
2023/06/14 02:05:18;;;;;;;;;23.00;18.00;;;;;;;;5083906;27;45190;-68
2023/06/14 02:07:44;;;;;;;;;17.00;16.00;;;;;;;;5081553;27;45353;-68
2023/06/14 02:10:09;;;;;;;;;19.00;17.75;;;;;;;;5089468;27;46283;-68
2023/06/14 02:12:34;;;;;;;;;18.00;16.50;;;;;;;;5103552;27;46085;-67
2023/06/14 02:15:00;;;;;;;;;17.67;17.00;;;;;;;;5094537;27;45290;-67
2023/06/14 02:17:26;;;;;;;;;16.50;16.50;;;;;;;;5083060;27;45318;-68
2023/06/14 02:19:51;;;;;;;;;21.75;18.75;;;;;;;;5092531;27;46747;-68
2023/06/14 02:22:16;;;;;;;;;20.00;17.50;;;;;;;;5082260;27;45507;-68
2023/06/14 02:24:42;;;;;;;;;18.00;18.00;;;;;;;;5081948;27;45251;-67
2023/06/14 02:27:08;;;;;;;;;22.00;19.50;;;;;;;;5086198;27;45457;-68
2023/06/14 02:29:33;;;;;;;;;19.50;19.25;;;;;;;;5086820;27;46508;-67
2023/06/14 02:31:58;;;;;;;;;20.00;18.75;;;;;;;;5083028;27;46606;-67
2023/06/14 02:34:24;;;;;;;;;15.33;14.33;;;;;;;;5091515;27;45472;-68
2023/06/14 02:36:49;;;;;;;;;19.75;19.50;;;;;;;;5088298;27;45436;-68
2023/06/14 02:39:15;;;;;;;;;22.25;20.00;;;;;;;;5091436;27;45500;-67
2023/06/14 02:41:40;;;;;;;;;18.33;17.67;;;;;;;;5082555;27;45713;-68
2023/06/14 02:44:05;;;;;;;;;24.33;21.67;;;;;;;;5083106;27;45286;-67
2023/06/14 02:46:31;;;;;;;;;24.50;21.25;;;;;;;;5082862;27;45378;-67
2023/06/14 02:48:56;;;;;;;;;23.33;22.00;;;;;;;;5082422;27;45735;-67
2023/06/14 02:51:21;;;;;;;;;23.25;22.50;;;;;;;;5090944;27;47632;-68
2023/06/14 02:53:46;;;;;;;;;23.00;22.33;;;;;;;;5098540;27;45508;-68
2023/06/14 02:56:12;;;;;;;;;24.00;22.67;;;;;;;;5091483;27;45241;-68
2023/06/14 02:58:37;;;;;;;;;23.33;21.67;;;;;;;;5102890;27;45526;-68
2023/06/14 03:01:05;;;;;;;;;23.75;20.50;;;;;;;;5102535;27;45261;-68
2023/06/14 03:03:30;;;;;;;;;24.00;22.50;;;;;;;;5082391;27;45248;-68
2023/06/14 03:05:56;;;;;;;;;25.00;21.25;;;;;;;;5083367;27;45436;-68
2023/06/14 03:08:26;;;;;;;;;20.00;17.75;;;;;;;;5087393;27;45541;-68
2023/06/14 03:10:52;;;;;;;;;19.75;19.25;;;;;;;;5087057;27;47420;-68
2023/06/14 03:13:20;;;;;;;;;18.67;17.33;;;;;;;;5094154;27;45257;-67
2023/06/14 03:15:45;;;;;;;;;20.25;18.25;;;;;;;;5082034;27;45453;-67
2023/06/14 03:18:11;;;;;;;;;25.33;21.00;;;;;;;;5083824;27;45403;-68
2023/06/14 03:20:37;;;;;;;;;20.75;19.75;;;;;;;;5081585;27;45306;-67
2023/06/14 03:23:03;;;;;;;;;22.00;18.25;;;;;;;;5081627;27;45338;-67
2023/06/14 03:25:31;;;;;;;;;23.75;22.75;;;;;;;;5081679;27;45236;-67
2023/06/14 03:27:56;;;;;;;;;23.25;22.00;;;;;;;;5085318;27;45402;-67
2023/06/14 03:30:22;;;;;;;;;22.50;21.50;;;;;;;;5081262;27;45270;-67
2023/06/14 03:32:47;;;;;;;;;21.33;19.33;;;;;;;;5087101;27;45286;-67
2023/06/14 03:35:16;;;;;;;;;21.33;19.67;;;;;;;;5099643;27;45496;-67
2023/06/14 03:37:44;;;;;;;;;24.00;20.25;;;;;;;;5100543;27;45318;-68
2023/06/14 03:40:09;;;;;;;;;27.75;25.75;;;;;;;;5086490;27;45640;-67
2023/06/14 03:42:35;;;;;;;;;21.50;20.50;;;;;;;;5086810;27;45321;-67
2023/06/14 03:45:00;;;;;;;;;25.00;22.67;;;;;;;;5102587;27;45206;-69
2023/06/14 03:47:26;;;;;;;;;23.00;21.75;;;;;;;;5100602;27;45491;-66
2023/06/14 03:49:52;;;;;;;;;26.25;24.00;;;;;;;;5086656;27;47824;-66
2023/06/14 03:52:17;;;;;;;;;22.67;21.67;;;;;;;;5102169;27;45306;-66
2023/06/14 03:54:44;;;;;;;;;19.33;16.33;;;;;;;;5099597;27;45226;-67
2023/06/14 03:57:10;;;;;;;;;25.25;25.00;;;;;;;;5093306;27;46055;-66
2023/06/14 03:59:35;;;;;;;;;25.50;23.50;;;;;;;;5093824;27;46711;-66
2023/06/14 04:02:00;;;;;;;;;25.25;21.50;;;;;;;;5093442;27;45487;-66
2023/06/14 04:04:28;;;;;;;;;30.00;26.00;;;;;;;;5081691;27;45346;-66
2023/06/14 04:06:54;;;;;;;;;21.50;20.50;;;;;;;;5081245;27;45311;-66
2023/06/14 04:09:19;;;;;;;;;26.25;24.25;;;;;;;;5081071;27;46106;-66
2023/06/14 04:11:44;;;;;;;;;25.00;22.00;;;;;;;;5097199;27;46820;-66
2023/06/14 04:14:09;;;;;;;;;24.50;21.25;;;;;;;;5089230;27;45227;-66
2023/06/14 04:16:35;;;;;;;;;24.00;21.50;;;;;;;;5099383;27;45253;-66
2023/06/14 04:19:00;;;;;;;;;24.67;23.67;;;;;;;;5089237;27;46562;-66
2023/06/14 04:21:27;;;;;;;;;24.50;23.00;;;;;;;;5080083;27;45293;-66
2023/06/14 04:23:53;;;;;;;;;22.00;20.50;;;;;;;;5098642;27;45211;-66
2023/06/14 04:26:20;;;;;;;;;26.00;21.75;;;;;;;;5090095;27;45328;-67
2023/06/14 04:28:46;;;;;;;;;23.00;21.75;;;;;;;;5094370;27;46078;-66
2023/06/14 04:31:12;;;;;;;;;23.50;19.00;;;;;;;;5081288;27;45564;-66
2023/06/14 04:33:43;;;;;;;;;19.33;18.00;;;;;;;;5079816;28;45663;-67
2023/06/14 04:36:10;;;;;;;;;20.75;19.50;;;;;;;;5081924;27;45619;-66
2023/06/14 04:38:35;;;;;;;;;24.25;21.25;;;;;;;;5080510;27;45437;-66
2023/06/14 04:41:02;;;;;;;;;25.00;18.25;;;;;;;;5079189;27;45551;-66
2023/06/14 04:43:27;;;;;;;;;22.50;22.00;;;;;;;;5079547;28;45342;-66
2023/06/14 04:45:54;;;;;;;;;22.00;21.00;;;;;;;;5080925;27;45241;-67
2023/06/14 04:48:20;;;;;;;;;22.50;19.75;;;;;;;;5080748;27;45718;-67
2023/06/14 04:50:45;;;;;;;;;25.50;21.00;;;;;;;;5080830;27;45217;-67
2023/06/14 04:53:11;;;;;;;;;24.00;19.67;;;;;;;;5080921;27;45185;-67
2023/06/14 04:55:37;;;;;;;;;23.50;23.00;;;;;;;;5081117;27;45806;-66
2023/06/14 04:58:03;;;;;;;;;27.25;25.75;;;;;;;;5087117;27;48295;-67
2023/06/14 05:00:28;;;;;;;;;22.75;21.25;;;;;;;;5096305;27;45420;-67
2023/06/14 05:02:53;;;;;;;;;17.67;16.67;;;;;;;;5085388;27;45341;-67
2023/06/14 05:05:19;;;;;;;;;20.00;19.33;;;;;;;;5080365;27;45485;-67
2023/06/14 05:07:45;;;;;;;;;27.00;24.75;;;;;;;;5081608;27;45490;-67
2023/06/14 05:10:10;;;;;;;;;21.75;21.00;;;;;;;;5080050;27;45353;-67
2023/06/14 05:12:36;;;;;;;;;24.50;19.75;;;;;;;;5089730;27;45393;-66
2023/06/14 05:15:01;;;;;;;;;24.00;23.75;;;;;;;;5100769;27;45332;-67
2023/06/14 05:17:27;;;;;;;;;23.00;21.67;;;;;;;;5100579;27;45362;-66
2023/06/14 05:19:53;;;;;;;;;21.50;20.00;;;;;;;;5089514;27;45342;-67
2023/06/14 05:22:18;;;;;;;;;23.33;20.00;;;;;;;;5087611;27;45327;-67
2023/06/14 05:24:43;;;;;;;;;23.33;20.33;;;;;;;;5095007;27;45387;-67
2023/06/14 05:27:08;;;;;;;;;23.25;21.75;;;;;;;;5092786;27;45316;-67
2023/06/14 05:29:33;;;;;;;;;27.33;23.67;;;;;;;;5082635;27;45342;-67
2023/06/14 05:31:59;;;;;;;;;23.00;21.67;;;;;;;;5079040;28;45433;-67
2023/06/14 05:34:24;;;;;;;;;26.33;24.00;;;;;;;;5078966;27;45183;-67
2023/06/14 05:36:49;;;;;;;;;30.67;24.33;;;;;;;;5082857;27;47361;-67
2023/06/14 05:39:14;;;;;;;;;26.00;23.33;;;;;;;;5078488;27;45369;-67
2023/06/14 05:41:40;;;;;;;;;26.67;24.67;;;;;;;;5092223;27;45464;-67
2023/06/14 05:44:05;;;;;;;;;25.25;24.75;;;;;;;;5093688;27;45202;-67
2023/06/14 05:46:30;;;;;;;;;27.33;26.33;;;;;;;;5091485;27;47286;-67
2023/06/14 05:48:55;;;;;;;;;21.50;21.00;;;;;;;;5088703;27;45224;-67
2023/06/14 05:51:21;;;;;;;;;26.25;23.50;;;;;;;;5083333;27;45207;-67
2023/06/14 05:53:49;;;;;;;;;21.33;21.00;;;;;;;;5079780;28;45222;-67
2023/06/14 05:56:15;;;;;;;;;28.75;23.50;;;;;;;;5078110;27;47989;-67
2023/06/14 05:58:40;;;;;;;;;23.25;21.00;;;;;;;;5079813;27;45570;-67
2023/06/14 06:01:05;;;;;;;;;26.50;25.25;;;;;;;;5079999;27;45259;-67
2023/06/14 06:03:31;;;;;;;;;26.25;26.00;;;;;;;;5100363;27;45411;-67
2023/06/14 06:05:56;;;;;;;;;26.67;24.33;;;;;;;;5100015;27;46356;-67
2023/06/14 06:08:21;;;;;;;;;27.75;24.75;;;;;;;;5083280;27;45452;-66
2023/06/14 06:10:46;;;;;;;;;27.00;22.00;;;;;;;;5075615;28;45385;-67
2023/06/14 06:13:12;;;;;;;;;23.75;22.50;;;;;;;;5085628;27;46869;-67
2023/06/14 06:15:37;;;;;;;;;22.67;21.33;;;;;;;;5081439;27;46834;-67
2023/06/14 06:18:02;;;;;;;;;25.25;22.75;;;;;;;;5077655;28;45342;-67
2023/06/14 06:20:31;;;;;;;;;20.67;20.67;;;;;;;;5077942;27;45357;-67
2023/06/14 06:22:57;;;;;;;;;22.75;21.25;;;;;;;;5079668;27;45160;-67
2023/06/14 06:25:23;;;;;;;;;30.00;25.75;;;;;;;;5078914;27;45632;-67
2023/06/14 06:27:48;;;;;;;;;25.50;24.75;;;;;;;;5082207;27;45228;-67
2023/06/14 06:30:13;;;;;;;;;27.33;21.33;;;;;;;;5089092;27;45214;-67
2023/06/14 06:32:39;;;;;;;;;23.25;20.75;;;;;;;;5099719;27;45462;-67
2023/06/14 06:35:06;;;;;;;;;20.00;18.33;;;;;;;;5088801;27;47171;-67
2023/06/14 06:37:31;;;;;;;;;16.50;16.50;;;;;;;;5091657;27;45749;-67
2023/06/14 06:39:56;;;;;;;;;17.00;16.00;;;;;;;;5088124;27;45262;-67
2023/06/14 06:42:21;;;;;;;;;20.67;19.33;;;;;;;;5091106;27;45385;-66
2023/06/14 06:44:47;;;;;;;;;18.33;16.67;;;;;;;;5100105;27;45374;-71
2023/06/14 06:47:12;;;;;;;;;17.75;16.00;;;;;;;;5082754;27;45484;-67
2023/06/14 06:49:37;;;;;;;;;12.00;11.33;;;;;;;;5092001;27;45404;-67
2023/06/14 06:52:03;;;;;;;;;18.33;16.33;;;;;;;;5086337;27;45969;-67
2023/06/14 06:54:28;;;;;;;;;18.75;16.00;;;;;;;;5101499;27;47722;-67
2023/06/14 06:56:54;;;;;;;;;16.50;15.50;;;;;;;;5093998;27;45353;-63
2023/06/14 06:59:19;;;;;;;;;18.25;15.75;;;;;;;;5082323;27;45436;-63
2023/06/14 07:01:45;;;;;;;;;16.75;14.25;;;;;;;;5088014;27;45490;-64
2023/06/14 07:04:10;;;;;;;;;15.25;13.50;;;;;;;;5083482;27;45334;-63
2023/06/14 07:06:35;;;;;;;;;14.00;14.00;;;;;;;;5086568;27;45309;-63
2023/06/14 07:09:01;;;;;;;;;16.50;15.00;;;;;;;;5091000;27;45246;-64
2023/06/14 07:11:26;;;;;;;;;14.25;13.00;;;;;;;;5091615;27;46138;-64
2023/06/14 07:13:52;;;;;;;;;15.00;13.67;;;;;;;;5082326;27;46498;-63
2023/06/14 07:16:17;;;;;;;;;15.00;13.00;;;;;;;;5090112;27;45472;-64
2023/06/14 07:18:42;;;;;;;;;18.33;16.67;;;;;;;;5093104;27;45287;-64
2023/06/14 07:21:08;;;;;;;;;16.00;15.00;;;;;;;;5091108;27;45466;-64
2023/06/14 07:23:33;;;;;;;;;14.00;12.75;;;;;;;;5089632;27;45552;-65
2023/06/14 07:25:58;;;;;;;;;14.25;13.50;;;;;;;;5081881;27;45385;-64
2023/06/14 07:28:23;;;;;;;;;14.67;13.00;;;;;;;;5095107;27;45543;-64
2023/06/14 07:30:48;;;;;;;;;16.33;14.33;;;;;;;;5094074;27;45407;-63
2023/06/14 07:33:14;;;;;;;;;14.67;12.67;;;;;;;;5095434;27;45436;-64
2023/06/14 07:35:40;;;;;;;;;12.25;12.25;;;;;;;;5091713;27;45475;-64
2023/06/14 07:38:05;;;;;;;;;16.50;15.00;;;;;;;;5082786;27;45581;-64
2023/06/14 07:40:30;;;;;;;;;11.33;11.33;;;;;;;;5090291;27;45328;-63
2023/06/14 07:42:55;;;;;;;;;13.00;12.00;;;;;;;;5090404;27;45518;-63
2023/06/14 07:45:21;;;;;;;;;15.25;13.00;;;;;;;;5085012;27;45305;-63
2023/06/14 07:47:46;;;;;;;;;12.00;12.00;;;;;;;;5092269;27;45625;-63
2023/06/14 07:50:12;;;;;;;;;13.75;13.25;;;;;;;;5101103;27;45294;-63
2023/06/14 07:52:37;;;;;;;;;13.25;13.00;;;;;;;;5096807;27;46454;-63
2023/06/14 07:55:03;;;;;;;;;20.67;15.67;;;;;;;;5093463;27;45273;-64
2023/06/14 07:57:29;;;;;;;;;17.25;14.00;;;;;;;;5079141;27;45457;-63
2023/06/14 07:59:54;;;;;;;;;9.50;9.00;;;;;;;;5088132;27;45442;-63
2023/06/14 08:02:19;;;;;;;;;16.00;15.75;;;;;;;;5086677;27;46169;-63
2023/06/14 08:04:45;;;;;;;;;14.50;14.00;;;;;;;;5089027;27;45361;-62
2023/06/14 08:07:10;;;;;;;;;12.00;11.00;;;;;;;;5087974;27;45651;-63
2023/06/14 08:09:37;;;;;;;;;15.50;13.00;;;;;;;;5090451;27;45556;-64
2023/06/14 08:12:03;;;;;;;;;13.50;12.00;;;;;;;;5082834;27;45630;-63
2023/06/14 08:14:29;;;;;;;;;17.00;14.00;;;;;;;;5084727;27;45441;-63
2023/06/14 08:16:54;;;;;;;;;15.25;12.25;;;;;;;;5084550;27;45659;-63
2023/06/14 08:19:19;;;;;;;;;18.25;16.50;;;;;;;;5086054;27;45491;-63
2023/06/14 08:21:46;;;;;;;;;16.50;16.00;;;;;;;;5082023;27;46974;-63
2023/06/14 08:24:12;;;;;;;;;15.00;14.00;;;;;;;;5082063;27;45539;-63
2023/06/14 08:26:38;;;;;;;;;19.00;17.50;;;;;;;;5092499;27;45504;-63
2023/06/14 08:29:03;;;;;;;;;15.00;14.75;;;;;;;;5086261;27;45725;-62
2023/06/14 08:31:28;;;;;;;;;15.25;14.50;;;;;;;;5087106;27;47144;-63
2023/06/14 08:33:54;;;;;;;;;20.25;15.50;;;;;;;;5086222;27;45320;-62
2023/06/14 08:36:19;;;;;;;;;13.00;11.75;;;;;;;;5086494;27;45401;-64
2023/06/14 08:38:44;;;;;;;;;16.00;16.00;;;;;;;;5084607;27;45616;-64
2023/06/14 08:41:11;;;;;;;;;15.25;14.25;;;;;;;;5080736;27;45707;-63
2023/06/14 08:43:36;;;;;;;;;15.75;13.50;;;;;;;;5092506;27;45403;-63
2023/06/14 08:46:03;;;;;;;;;12.67;12.67;;;;;;;;5087692;27;45400;-62
2023/06/14 08:48:28;;;;;;;;;13.50;12.25;;;;;;;;5088186;27;45518;-63
2023/06/14 08:51:01;;;;;;;;;13.67;12.67;;;;;;;;5081405;27;46443;-62
2023/06/14 08:53:28;;;;;;;;;15.50;12.25;;;;;;;;5085665;27;45411;-62
2023/06/14 08:55:55;;;;;;;;;15.00;13.25;;;;;;;;5084123;27;45235;-62
2023/06/14 08:58:20;;;;;;;;;15.75;14.00;;;;;;;;5086106;27;45446;-63
2023/06/14 09:00:46;;;;;;;;;14.75;13.25;;;;;;;;5087838;27;45436;-63
2023/06/14 09:03:13;;;;;;;;;12.75;12.75;;;;;;;;5093444;27;45538;-64
2023/06/14 09:05:38;;;;;;;;;15.00;15.00;;;;;;;;5093646;27;46718;-64
2023/06/14 09:08:05;;;;;;;;;11.25;11.25;;;;;;;;5084011;27;45530;-64
2023/06/14 09:10:33;;;;;;;;;13.75;13.50;;;;;;;;5096688;27;45243;-64
2023/06/14 09:12:59;;;;;;;;;14.25;13.00;;;;;;;;5085510;27;45236;-64
2023/06/14 09:15:25;;;;;;;;;12.75;11.75;;;;;;;;5100653;27;45399;-64
2023/06/14 09:17:51;;;;;;;;;14.25;11.25;;;;;;;;5100279;27;45398;-63
2023/06/14 09:20:19;;;;;;;;;14.25;14.25;;;;;;;;5091253;27;46226;-65
2023/06/14 09:22:45;;;;;;;;;13.00;12.00;;;;;;;;5095595;27;45676;-64
2023/06/14 09:25:11;;;;;;;;;14.75;14.50;;;;;;;;5100432;27;45427;-65
2023/06/14 09:27:39;;;;;;;;;14.00;13.25;;;;;;;;5090008;27;45223;-65
2023/06/14 09:30:09;;;;;;;;;12.00;10.25;;;;;;;;5084550;27;45544;-64
2023/06/14 09:32:36;;;;;;;;;17.75;13.50;;;;;;;;5092724;27;45276;-64
2023/06/14 09:35:02;;;;;;;;;16.50;13.25;;;;;;;;5088725;27;45417;-63
2023/06/14 09:37:28;;;;;;;;;15.75;13.50;;;;;;;;5085453;27;45351;-63
2023/06/14 09:39:53;;;;;;;;;12.00;11.00;;;;;;;;5090496;27;45370;-64
2023/06/14 09:42:19;;;;;;;;;15.67;13.00;;;;;;;;5085370;27;45487;-64
2023/06/14 09:44:48;;;;;;;;;10.00;10.00;;;;;;;;5085371;27;45462;-64
2023/06/14 09:47:14;;;;;;;;;10.00;9.50;;;;;;;;5082776;27;45672;-64
2023/06/14 09:49:39;;;;;;;;;10.25;10.00;;;;;;;;5084594;27;46283;-64
2023/06/14 09:52:07;;;;;;;;;13.00;13.00;;;;;;;;5084061;27;45426;-64
2023/06/14 09:54:33;;;;;;;;;7.75;7.00;;;;;;;;5084137;27;45734;-64
2023/06/14 09:56:59;;;;;;;;;11.25;10.50;;;;;;;;5086801;27;45448;-64
2023/06/14 09:59:29;;;;;;;;;12.75;11.00;;;;;;;;5084471;27;45399;-64
2023/06/14 10:01:57;;;;;;;;;10.75;10.25;;;;;;;;5085679;27;45505;-64
2023/06/14 10:04:22;;;;;;;;;13.00;12.75;;;;;;;;5087090;27;45619;-64
2023/06/14 10:06:49;;;;;;;;;10.50;10.25;;;;;;;;5091166;27;45620;-64
2023/06/14 10:09:14;;;;;;;;;15.25;14.00;;;;;;;;5084165;27;46340;-64
2023/06/14 10:11:43;;;;;;;;;14.00;12.00;;;;;;;;5086230;27;45303;-64
2023/06/14 10:14:09;;;;;;;;;13.00;11.75;;;;;;;;5084861;27;45440;-63
2023/06/14 10:16:38;;;;;;;;;13.50;12.00;;;;;;;;5089702;27;45294;-64
2023/06/14 10:19:04;;;;;;;;;11.75;11.50;;;;;;;;5086548;27;45329;-64
2023/06/14 10:21:36;;;;;;;;;10.00;9.00;;;;;;;;5083097;27;45394;-64
2023/06/14 10:24:04;;;;;;;;;13.25;11.00;;;;;;;;5082872;27;45459;-64
2023/06/14 10:26:30;;;;;;;;;11.00;10.00;;;;;;;;5095141;27;45497;-64
2023/06/14 10:29:07;;;;;;;;;12.67;12.00;;;;;;;;5087514;27;46446;-64
2023/06/14 10:31:47;;;;;;;;;12.75;12.75;;;;;;;;5085909;27;45448;-64
2023/06/14 10:34:20;;;;;;;;;12.75;11.50;;;;;;;;5082343;27;45743;-64
2023/06/14 10:36:45;;;;;;;;;11.25;10.75;;;;;;;;5102470;27;45234;-64
2023/06/14 10:39:14;;;;;;;;;13.00;12.00;;;;;;;;5102702;27;45405;-64
2023/06/14 10:41:40;;;;;;;;;12.25;11.75;;;;;;;;5094702;27;45283;-64
2023/06/14 10:44:14;;;;;;;;;8.25;8.25;;;;;;;;5088720;27;45351;-64
2023/06/14 10:46:40;;;;;;;;;6.75;6.75;;;;;;;;5095052;27;45362;-66
2023/06/14 10:49:06;;;;;;;;;12.00;12.00;;;;;;;;5095509;27;45427;-63
2023/06/14 10:51:45;;;;;;;;;13.50;12.50;;;;;;;;5085030;27;46717;-64
2023/06/14 10:54:11;;;;;;;;;12.50;12.00;;;;;;;;5083592;27;45223;-64
2023/06/14 10:56:36;;;;;;;;;12.00;11.75;;;;;;;;5095570;27;45169;-64
2023/06/14 10:59:02;;;;;;;;;13.33;13.33;;;;;;;;5095469;27;45544;-65
2023/06/14 11:01:40;;;;;;;;;12.67;12.33;;;;;;;;5081604;27;45400;-66
2023/06/14 11:04:09;;;;;;;;;13.00;12.25;;;;;;;;5096549;27;45302;-65
2023/06/14 11:06:45;;;;;;;;;10.00;9.50;;;;;;;;5093913;27;45408;-65
2023/06/14 11:09:14;;;;;;;;;9.00;9.00;;;;;;;;5085188;27;45441;-66
2023/06/14 11:11:42;;;;;;;;;11.75;10.75;;;;;;;;5095243;27;45499;-65
2023/06/14 11:14:07;;;;;;;;;13.25;13.25;;;;;;;;5089028;27;45325;-67
2023/06/14 11:16:33;;;;;;;;;13.33;13.33;;;;;;;;5094991;27;47612;-66
2023/06/14 11:19:00;;;;;;;;;11.00;9.25;;;;;;;;5094300;27;45516;-66
2023/06/14 11:21:30;;;;;;;;;11.75;10.75;;;;;;;;5090464;27;45554;-68
2023/06/14 11:23:56;;;;;;;;;9.00;9.00;;;;;;;;5093091;27;45378;-65
2023/06/14 11:26:26;;;;;;;;;12.50;12.25;;;;;;;;5084398;27;45248;-65
2023/06/14 11:28:54;;;;;;;;;12.50;11.50;;;;;;;;5088189;27;46385;-65
2023/06/14 11:31:20;;;;;;;;;11.25;11.25;;;;;;;;5090985;27;45491;-63
2023/06/14 11:33:49;;;;;;;;;14.00;12.25;;;;;;;;5085591;27;45220;-66
2023/06/14 11:36:15;;;;;;;;;11.50;10.50;;;;;;;;5094313;27;45477;-66
2023/06/14 11:38:40;;;;;;;;;12.25;11.75;;;;;;;;5093785;27;45360;-65
2023/06/14 11:41:05;;;;;;;;;10.25;10.25;;;;;;;;5088994;27;45424;-66
2023/06/14 11:43:32;;;;;;;;;16.25;13.50;;;;;;;;5085970;27;45792;-66
2023/06/14 11:45:57;;;;;;;;;13.75;12.75;;;;;;;;5091793;27;45303;-68
2023/06/14 11:48:22;;;;;;;;;15.00;12.67;;;;;;;;5097985;27;45640;-66
2023/06/14 11:50:49;;;;;;;;;12.33;12.33;;;;;;;;5085333;27;45459;-65
2023/06/14 11:53:16;;;;;;;;;12.25;11.25;;;;;;;;5098571;27;45487;-65
2023/06/14 11:55:44;;;;;;;;;13.00;13.00;;;;;;;;5085611;27;45252;-65
2023/06/14 11:58:10;;;;;;;;;15.50;15.00;;;;;;;;5089098;27;46111;-65
2023/06/14 12:00:36;;;;;;;;;13.50;12.50;;;;;;;;5091159;27;45448;-64
2023/06/14 12:03:02;;;;;;;;;14.75;13.50;;;;;;;;5086821;27;45468;-65
2023/06/14 12:05:28;;;;;;;;;12.25;12.00;;;;;;;;5087064;27;45330;-64
2023/06/14 12:08:00;;;;;;;;;14.75;14.25;;;;;;;;5095331;27;45482;-65
2023/06/14 12:10:25;;;;;;;;;14.75;14.00;;;;;;;;5095456;27;45546;-65
2023/06/14 12:12:50;;;;;;;;;13.25;13.00;;;;;;;;5083634;27;45658;-65
2023/06/14 12:15:16;;;;;;;;;13.67;13.33;;;;;;;;5096015;27;45502;-65
2023/06/14 12:17:42;;;;;;;;;13.75;12.75;;;;;;;;5090601;27;46234;-66
2023/06/14 12:20:13;;;;;;;;;12.75;12.75;;;;;;;;5087688;27;45268;-65
2023/06/14 12:22:39;;;;;;;;;13.75;13.75;;;;;;;;5081545;27;45366;-66
2023/06/14 12:25:05;;;;;;;;;17.25;15.00;;;;;;;;5088403;27;45379;-66
2023/06/14 12:27:30;;;;;;;;;14.25;12.75;;;;;;;;5089543;27;45274;-66
2023/06/14 12:30:02;;;;;;;;;12.00;11.33;;;;;;;;5093479;27;45378;-66
2023/06/14 12:32:27;;;;;;;;;15.00;13.75;;;;;;;;5089005;27;45443;-65
2023/06/14 12:34:53;;;;;;;;;15.25;14.25;;;;;;;;5088245;27;46043;-65
2023/06/14 12:37:18;;;;;;;;;15.00;14.00;;;;;;;;5092345;27;46257;-65
2023/06/14 12:39:43;;;;;;;;;15.33;14.33;;;;;;;;5088538;27;45553;-64
2023/06/14 12:42:09;;;;;;;;;12.33;12.00;;;;;;;;5081287;27;45311;-64
2023/06/14 12:44:35;;;;;;;;;13.00;12.75;;;;;;;;5080626;27;45462;-64
2023/06/14 12:47:00;;;;;;;;;17.00;16.00;;;;;;;;5081652;27;46348;-64
2023/06/14 12:49:26;;;;;;;;;12.00;11.67;;;;;;;;5080347;27;45348;-64
2023/06/14 12:51:51;;;;;;;;;16.00;14.33;;;;;;;;5086441;27;45382;-64
2023/06/14 12:54:17;;;;;;;;;16.00;16.00;;;;;;;;5085984;27;45534;-65
2023/06/14 12:56:44;;;;;;;;;13.50;13.00;;;;;;;;5094516;27;45416;-64
2023/06/14 12:59:10;;;;;;;;;15.50;13.75;;;;;;;;5088491;27;45334;-64
2023/06/14 13:01:37;;;;;;;;;12.00;12.00;;;;;;;;5095291;27;45448;-64
2023/06/14 13:04:02;;;;;;;;;13.75;13.25;;;;;;;;5080340;27;45457;-64
2023/06/14 13:06:29;;;;;;;;;13.75;12.75;;;;;;;;5080618;27;45429;-67
2023/06/14 13:08:57;;;;;;;;;13.75;12.75;;;;;;;;5088126;27;45310;-67
2023/06/14 13:11:22;;;;;;;;;12.25;11.50;;;;;;;;5100627;27;45163;-67
2023/06/14 13:13:48;;;;;;;;;15.25;15.00;;;;;;;;5099543;27;45381;-67
2023/06/14 13:16:14;;;;;;;;;14.25;13.75;;;;;;;;5092611;27;45559;-67
2023/06/14 13:18:39;;;;;;;;;12.50;12.25;;;;;;;;5094773;27;45460;-67
2023/06/14 13:21:04;;;;;;;;;14.33;13.33;;;;;;;;5100788;27;45603;-67
2023/06/14 13:23:30;;;;;;;;;12.25;11.25;;;;;;;;5094252;27;46672;-67
2023/06/14 13:25:55;;;;;;;;;13.00;12.67;;;;;;;;5078647;28;47129;-65
2023/06/14 13:28:20;;;;;;;;;15.00;13.33;;;;;;;;5091723;27;45535;-66
2023/06/14 13:30:46;;;;;;;;;12.00;11.25;;;;;;;;5087296;27;45571;-67
2023/06/14 13:33:13;;;;;;;;;12.50;12.50;;;;;;;;5100385;27;45309;-66
2023/06/14 13:35:38;;;;;;;;;14.75;14.00;;;;;;;;5081411;27;47552;-67
2023/06/14 13:38:03;;;;;;;;;13.67;13.67;;;;;;;;5080102;27;45468;-67
2023/06/14 13:40:28;;;;;;;;;13.00;13.00;;;;;;;;5078739;28;45446;-68
2023/06/14 13:42:54;;;;;;;;;13.00;13.00;;;;;;;;5078284;27;46845;-67
2023/06/14 13:45:19;;;;;;;;;10.67;10.67;;;;;;;;5078674;27;47226;-67
2023/06/14 13:47:44;;;;;;;;;15.50;14.75;;;;;;;;5091326;27;45282;-67
2023/06/14 13:50:10;;;;;;;;;12.75;12.75;;;;;;;;5079841;27;45270;-67
2023/06/14 13:52:35;;;;;;;;;14.00;13.00;;;;;;;;5090195;27;45583;-67
2023/06/14 13:55:00;;;;;;;;;13.67;13.67;;;;;;;;5079873;27;45426;-65
2023/06/14 13:57:25;;;;;;;;;9.00;8.25;;;;;;;;5078376;28;45661;-65
2023/06/14 13:59:51;;;;;;;;;15.00;15.00;;;;;;;;5078569;27;45480;-66
2023/06/14 14:02:16;;;;;;;;;13.75;12.50;;;;;;;;5081605;27;46102;-67
2023/06/14 14:04:41;;;;;;;;;14.00;13.25;;;;;;;;5095067;27;47304;-67
2023/06/14 14:07:07;;;;;;;;;13.67;13.00;;;;;;;;5088336;27;45389;-65
2023/06/14 14:09:33;;;;;;;;;13.25;11.50;;;;;;;;5092091;27;45219;-68
2023/06/14 14:11:59;;;;;;;;;11.75;11.75;;;;;;;;5087891;27;45391;-67